Time;durP1;ratioP1;P1;durP2;ratioP2;P2;SDS_P1;SDS_P2;PMS_P1;PMS_P2;Temp;Humidity;BMP_temperature;BMP_pressure;BME280_temperature;BME280_humidity;BME280_pressure;Samples;Min_cycle;Max_cycle;Signal;HPM_P1;HPM_P2
2022/07/25 00:02:13;;;;;;;5.67;2.20;;;;;;;23.56;68.69;95401.06;4370665;32;20189;-68
2022/07/25 00:04:40;;;;;;;2.60;2.50;;;;;;;23.54;68.68;95397.94;4370319;32;20192;-68
2022/07/25 00:07:06;;;;;;;2.20;2.10;;;;;;;23.48;68.18;95399.44;4386732;32;20173;-68
2022/07/25 00:09:32;;;;;;;4.10;3.23;;;;;;;23.55;68.48;95396.81;4370398;32;20203;-68
2022/07/25 00:11:59;;;;;;;3.27;2.97;;;;;;;23.44;69.17;95387.78;4403492;32;20202;-65
2022/07/25 00:14:25;;;;;;;2.23;2.03;;;;;;;23.41;69.09;95377.69;4391356;32;20219;-70
2022/07/25 00:16:52;;;;;;;2.07;1.97;;;;;;;23.37;70.23;95387.72;4395689;32;20301;-68
2022/07/25 00:19:21;;;;;;;1.60;1.60;;;;;;;23.25;70.53;95386.84;4401369;32;20279;-68
2022/07/25 00:21:47;;;;;;;2.03;1.80;;;;;;;23.30;70.27;95389.22;4396230;32;20179;-70
2022/07/25 00:24:15;;;;;;;2.60;2.50;;;;;;;23.25;69.17;95376.03;4380753;32;20195;-68
2022/07/25 00:26:42;;;;;;;1.83;1.73;;;;;;;23.25;69.83;95386.84;4327032;32;20184;-68
2022/07/25 00:29:08;;;;;;;3.07;2.90;;;;;;;23.17;69.02;95379.81;4385750;32;20192;-68
2022/07/25 00:31:34;;;;;;;2.50;2.40;;;;;;;23.02;69.03;95374.63;4385312;32;20210;-68
2022/07/25 00:34:00;;;;;;;2.50;2.40;;;;;;;23.03;70.25;95382.37;4393619;32;20212;-68
2022/07/25 00:36:29;;;;;;;2.43;2.33;;;;;;;22.99;70.36;95369.97;4369656;32;20202;-68
2022/07/25 00:38:54;;;;;;;2.20;2.07;;;;;;;22.90;69.77;95372.94;4403348;32;20255;-68
2022/07/25 00:41:30;;;;;;;2.97;2.83;;;;;;;22.93;71.17;95374.91;4404705;32;20269;-69
2022/07/25 00:43:56;;;;;;;2.77;2.67;;;;;;;22.88;71.15;95364.41;4385181;32;20184;-68
2022/07/25 00:49:46;;;;;;;3.00;2.90;;;;;;;22.92;69.71;95366.03;4383936;32;20248;-68
2022/07/25 00:52:24;;;;;;;2.23;2.13;;;;;;;22.80;71.71;95365.50;4358625;32;20192;-68
2022/07/25 00:58:13;;;;;;;2.37;2.27;;;;;;;22.58;71.28;95364.47;4393370;32;20283;-68
2022/07/25 01:00:39;;;;;;;2.23;2.13;;;;;;;22.57;71.88;95363.69;4362554;32;20188;-68
2022/07/25 01:03:04;;;;;;;2.17;2.17;;;;;;;22.59;72.38;95366.81;4364770;32;20183;-68
2022/07/25 01:05:30;;;;;;;3.60;3.30;;;;;;;22.54;72.77;95352.81;4405311;32;20184;-68
2022/07/25 01:07:57;;;;;;;2.57;2.47;;;;;;;22.48;73.49;95355.06;4401014;32;20188;-68
2022/07/25 01:10:23;;;;;;;2.87;2.77;;;;;;;22.32;73.07;95354.50;4356925;32;20304;-68
2022/07/25 01:12:54;;;;;;;2.63;2.53;;;;;;;22.36;73.05;95352.63;4388262;32;20187;-68
2022/07/25 01:15:21;;;;;;;3.77;3.43;;;;;;;22.39;73.74;95348.41;4386338;32;20181;-70
2022/07/25 01:17:48;;;;;;;3.03;2.77;;;;;;;22.42;74.69;95347.66;4349949;32;20256;-68
2022/07/25 01:20:15;;;;;;;2.87;2.77;;;;;;;22.39;73.51;95354.59;4364164;32;20247;-68
2022/07/25 01:22:41;;;;;;;2.57;2.37;;;;;;;22.35;73.56;95350.28;4392788;32;20226;-68
2022/07/25 01:25:07;;;;;;;2.40;2.30;;;;;;;22.45;73.96;95353.09;4360242;32;20203;-68
2022/07/25 01:27:33;;;;;;;2.90;2.80;;;;;;;22.44;74.21;95348.88;4383459;32;20172;-68
2022/07/25 01:30:04;;;;;;;2.73;2.43;;;;;;;22.51;74.17;95343.53;4393155;32;20277;-67
2022/07/25 01:32:31;;;;;;;3.87;3.57;;;;;;;22.52;73.91;95339.66;4377597;32;20274;-68
2022/07/25 01:34:58;;;;;;;3.13;2.83;;;;;;;22.52;72.96;95345.06;4398062;32;20184;-68
2022/07/25 01:37:28;;;;;;;3.03;2.83;;;;;;;22.47;74.52;95337.28;4377314;32;20266;-68
2022/07/25 01:39:55;;;;;;;3.17;2.97;;;;;;;22.47;74.62;95336.50;4368658;32;20191;-69
2022/07/25 01:42:20;;;;;;;3.90;3.60;;;;;;;22.40;74.53;95337.22;4391880;32;20274;-69
2022/07/25 01:44:46;;;;;;;2.83;2.63;;;;;;;22.41;74.42;95338.78;4400079;32;20187;-68
2022/07/25 01:47:11;;;;;;;2.63;2.50;;;;;;;22.45;74.51;95327.97;4392041;32;20203;-69
2022/07/25 01:49:38;;;;;;;3.03;2.93;;;;;;;22.33;74.97;95326.31;4364240;32;20196;-68
2022/07/25 01:52:04;;;;;;;2.53;2.23;;;;;;;22.29;74.10;95330.88;4385136;32;20179;-68
2022/07/25 01:54:30;;;;;;;3.03;2.83;;;;;;;22.44;74.26;95318.34;4371884;32;20234;-68
2022/07/25 01:56:58;;;;;;;2.40;2.30;;;;;;;22.44;74.65;95321.81;4400812;32;20184;-69
2022/07/25 01:59:25;;;;;;;3.07;2.97;;;;;;;22.26;75.31;95324.28;4404401;32;20210;-68
2022/07/25 02:01:51;;;;;;;5.73;3.53;;;;;;;22.36;75.61;95328.28;4383643;32;20202;-67
2022/07/25 02:04:16;;;;;;;2.27;2.17;;;;;;;22.31;75.16;95325.12;4382236;32;20192;-67
2022/07/25 02:06:43;;;;;;;4.30;4.00;;;;;;;22.26;74.80;95324.28;4381437;32;20266;-67
2022/07/25 02:09:10;;;;;;;3.27;3.07;;;;;;;22.14;75.58;95321.84;4401084;32;20211;-69
2022/07/25 02:11:36;;;;;;;3.47;3.27;;;;;;;22.11;75.46;95324.50;4395470;32;20188;-67
2022/07/25 02:14:03;;;;;;;1.97;1.87;;;;;;;21.92;75.33;95318.06;4396812;32;20184;-67
2022/07/25 02:16:31;;;;;;;2.37;2.27;;;;;;;22.01;76.91;95311.63;4379308;32;20184;-67
2022/07/25 02:18:57;;;;;;;2.53;2.43;;;;;;;21.99;76.47;95309.28;4392641;32;20181;-67
2022/07/25 02:21:24;;;;;;;2.87;2.77;;;;;;;22.11;76.11;95306.34;4394153;32;20206;-67
2022/07/25 02:23:54;;;;;;;3.40;3.13;;;;;;;22.04;75.85;95300.06;4385698;32;20207;-69
2022/07/25 02:26:23;;;;;;;2.90;2.80;;;;;;;22.04;76.25;95303.56;4400940;32;20269;-69
2022/07/25 02:28:49;;;;;;;2.77;2.67;;;;;;;22.12;75.56;95294.41;4405465;32;20301;-69
2022/07/25 02:31:15;;;;;;;2.97;2.87;;;;;;;22.17;75.62;95296.00;4380850;32;20179;-69
2022/07/25 02:33:42;;;;;;;9.10;3.00;;;;;;;21.98;76.01;95294.19;4408938;32;20183;-69
2022/07/25 02:36:08;;;;;;;3.20;3.00;;;;;;;21.88;76.85;95292.13;4388741;32;20211;-68
2022/07/25 02:38:34;;;;;;;3.37;3.17;;;;;;;21.92;76.94;95295.66;4383988;32;20185;-68
2022/07/25 02:41:01;;;;;;;2.17;2.07;;;;;;;21.90;76.42;95292.53;4363323;32;20176;-68
2022/07/25 02:43:34;;;;;;;3.20;3.00;;;;;;;21.98;75.98;95298.81;4358874;32;20222;-68
2022/07/25 02:46:00;;;;;;;2.33;2.23;;;;;;;21.88;76.61;95295.59;4383113;32;20239;-68
2022/07/25 02:48:32;;;;;;;3.53;3.30;;;;;;;21.83;76.87;95295.12;4378432;32;20184;-69
2022/07/25 02:50:57;;;;;;;2.70;2.60;;;;;;;21.79;76.64;95295.12;4367151;32;20187;-66
2022/07/25 02:53:25;;;;;;;3.37;3.17;;;;;;;21.59;77.04;95288.28;4371151;32;20260;-69
2022/07/25 02:55:52;;;;;;;2.97;2.77;;;;;;;21.61;77.36;95296.78;4357596;32;20188;-69
2022/07/25 02:58:18;;;;;;;3.67;3.47;;;;;;;21.71;77.78;95296.16;4402385;32;20307;-68
2022/07/25 03:00:47;;;;;;;2.97;2.77;;;;;;;21.82;77.42;95296.31;4395269;32;20196;-68
2022/07/25 03:03:14;;;;;;;3.07;2.97;;;;;;;21.77;76.70;95304.72;4389125;32;20176;-68
2022/07/25 03:05:41;;;;;;;3.63;3.43;;;;;;;21.75;76.35;95302.38;4355147;32;20247;-68
2022/07/25 03:08:08;;;;;;;3.43;3.23;;;;;;;21.75;77.06;95296.97;4391592;32;20184;-68
2022/07/25 03:10:35;;;;;;;3.70;3.50;;;;;;;21.76;76.75;95303.94;4375478;32;20216;-68
2022/07/25 03:13:02;;;;;;;3.50;3.30;;;;;;;21.77;77.16;95300.09;4377786;32;20244;-68
2022/07/25 03:15:27;;;;;;;2.80;2.70;;;;;;;21.81;77.63;95290.13;4403001;32;20199;-69
2022/07/25 03:17:53;;;;;;;2.33;2.23;;;;;;;21.66;77.63;95299.16;4378365;32;20237;-69
2022/07/25 03:20:20;;;;;;;3.27;3.10;;;;;;;21.69;76.74;95298.44;4393803;32;20206;-68
2022/07/25 03:22:47;;;;;;;3.03;2.93;;;;;;;21.64;77.41;95304.13;4405241;32;20253;-68
2022/07/25 03:25:16;;;;;;;2.10;2.00;;;;;;;21.69;77.80;95301.13;4366271;32;20192;-68
2022/07/25 03:27:42;;;;;;;3.63;3.43;;;;;;;21.76;77.62;95303.94;4338680;32;20177;-68
2022/07/25 03:30:11;;;;;;;2.60;2.50;;;;;;;21.85;77.60;95300.97;4392675;32;20196;-70
2022/07/25 03:32:39;;;;;;;3.67;3.43;;;;;;;21.85;76.33;95301.72;4387787;32;20184;-68
2022/07/25 03:35:06;;;;;;;1.90;1.90;;;;;;;21.93;76.43;95297.22;4372156;32;20264;-68
2022/07/25 03:37:32;;;;;;;2.80;2.70;;;;;;;21.91;76.87;95300.28;4396613;32;20188;-69
2022/07/25 03:40:00;;;;;;;2.73;2.63;;;;;;;21.88;77.34;95303.72;4372409;32;20184;-68
2022/07/25 03:42:25;;;;;;;3.27;3.07;;;;;;;21.88;76.48;95294.81;4379941;32;20184;-70
2022/07/25 03:44:51;;;;;;;1.70;1.70;;;;;;;21.92;76.40;95291.03;4339938;32;20208;-69
2022/07/25 03:47:17;;;;;;;3.70;3.50;;;;;;;21.93;76.52;95283.72;4371646;32;20235;-69
2022/07/25 03:49:43;;;;;;;3.73;3.43;;;;;;;21.83;76.82;95287.81;4388905;32;20237;-69
2022/07/25 03:52:09;;;;;;;2.80;2.70;;;;;;;21.69;76.50;95287.62;4385629;32;20188;-68
2022/07/25 03:54:34;;;;;;;2.60;2.50;;;;;;;21.69;76.71;95281.44;4400704;32;20198;-69
2022/07/25 03:57:00;;;;;;;3.33;3.13;;;;;;;21.62;76.87;95287.53;4399695;32;20232;-68
2022/07/25 03:59:26;;;;;;;3.70;3.43;;;;;;;21.68;76.70;95280.66;4400543;32;20209;-70
2022/07/25 04:01:51;;;;;;;3.33;3.13;;;;;;;21.50;76.76;95279.66;4401346;32;20180;-69
2022/07/25 04:04:18;;;;;;;3.07;2.93;;;;;;;21.50;78.25;95282.34;4392600;32;20233;-69
2022/07/25 04:06:44;;;;;;;2.90;2.80;;;;;;;21.54;77.89;95283.19;4374467;32;20184;-68
2022/07/25 04:09:11;;;;;;;2.87;2.73;;;;;;;21.66;77.06;95291.06;4366048;32;20206;-69
2022/07/25 04:11:37;;;;;;;3.07;2.97;;;;;;;21.68;76.93;95285.28;4397713;32;20196;-69
2022/07/25 04:14:05;;;;;;;3.57;3.37;;;;;;;21.69;77.06;95287.62;4398028;32;20184;-69
2022/07/25 04:16:30;;;;;;;3.00;2.90;;;;;;;21.62;76.58;95285.59;4385661;32;20227;-70
2022/07/25 04:18:57;;;;;;;4.23;3.93;;;;;;;21.74;77.56;95292.72;4408477;32;20198;-70
2022/07/25 04:21:24;;;;;;;3.37;3.17;;;;;;;21.76;76.51;95285.03;4406049;32;20184;-71
2022/07/25 04:23:50;;;;;;;2.80;2.70;;;;;;;21.85;76.71;95279.34;4402029;32;20192;-71
2022/07/25 04:26:18;;;;;;;2.57;2.47;;;;;;;21.76;77.17;95278.84;4383080;32;20197;-70
2022/07/25 04:28:45;;;;;;;3.03;2.93;;;;;;;21.74;76.59;95273.81;4377909;32;20175;-69
2022/07/25 04:31:12;;;;;;;2.83;2.63;;;;;;;21.56;77.64;95272.78;4400910;32;20235;-69
2022/07/25 04:33:39;;;;;;;4.10;3.80;;;;;;;21.66;77.55;95272.16;4391605;32;20245;-68
2022/07/25 04:36:06;;;;;;;3.10;2.90;;;;;;;21.68;77.58;95277.19;4356683;32;20192;-68
2022/07/25 04:38:32;;;;;;;2.67;2.57;;;;;;;21.52;77.24;95274.66;4367112;32;20207;-68
2022/07/25 04:41:04;;;;;;;2.90;2.73;;;;;;;21.54;77.73;95270.47;4387615;32;20180;-68
2022/07/25 04:43:30;;;;;;;3.80;3.50;;;;;;;21.47;77.40;95264.94;4366133;32;20234;-68
2022/07/25 04:45:55;;;;;;;2.27;2.17;;;;;;;21.59;77.22;95261.28;4398546;32;20196;-69
2022/07/25 04:48:22;;;;;;;4.37;4.07;;;;;;;21.68;77.73;95267.16;4385319;32;20187;-70
2022/07/25 04:50:49;;;;;;;4.63;4.23;;;;;;;21.65;77.29;95267.87;4383044;32;20290;-68
2022/07/25 04:53:15;;;;;;;2.63;2.53;;;;;;;21.74;76.80;95268.41;4344716;32;20237;-68
2022/07/25 04:55:41;;;;;;;2.10;2.10;;;;;;;21.77;76.88;95267.69;4362982;32;20271;-68
2022/07/25 04:58:07;;;;;;;3.03;2.93;;;;;;;21.77;76.90;95261.50;4407468;32;20200;-72
2022/07/25 05:00:34;;;;;;;7.10;3.40;;;;;;;21.83;75.40;95268.13;4400229;32;20316;-68
2022/07/25 05:03:00;;;;;;;2.40;2.30;;;;;;;21.72;76.33;95265.28;4393963;32;20192;-69
2022/07/25 05:05:27;;;;;;;2.37;2.27;;;;;;;21.86;76.20;95260.06;4389140;32;20180;-69
2022/07/25 05:07:58;;;;;;;3.00;2.80;;;;;;;21.71;77.22;95263.75;4375994;32;20194;-70
2022/07/25 05:10:25;;;;;;;3.93;3.40;;;;;;;21.82;76.21;95259.25;4391351;32;20224;-70
2022/07/25 05:12:50;;;;;;;7.87;4.50;;;;;;;21.85;75.79;95258.50;4288393;32;20190;-70
2022/07/25 05:15:16;;;;;;;4.83;3.27;;;;;;;21.93;76.43;95256.69;4389843;32;20203;-70
2022/07/25 05:17:42;;;;;;;3.20;3.00;;;;;;;22.02;76.36;95246.41;4390257;32;20219;-69
2022/07/25 05:20:09;;;;;;;3.70;3.50;;;;;;;22.07;76.04;95248.78;4386703;32;20274;-69
2022/07/25 05:22:36;;;;;;;2.50;2.40;;;;;;;22.09;75.72;95257.28;4400755;32;20176;-69
2022/07/25 05:25:10;;;;;;;3.53;3.33;;;;;;;22.01;76.05;95254.91;4360214;32;20193;-69
2022/07/25 05:27:37;;;;;;;3.30;3.00;;;;;;;22.00;75.76;95250.59;4377925;32;20207;-69
2022/07/25 05:30:06;;;;;;;3.67;3.40;;;;;;;22.17;75.85;95256.25;4395399;32;20201;-68
2022/07/25 05:32:31;;;;;;;3.10;3.00;;;;;;;22.26;75.38;95258.63;4388712;32;20198;-67
2022/07/25 05:34:59;;;;;;;5.70;4.17;;;;;;;21.97;75.87;95252.13;4345388;32;20200;-67
2022/07/25 05:37:26;;;;;;;3.27;2.97;;;;;;;21.95;75.75;95252.47;4395532;32;20180;-67
2022/07/25 05:39:53;;;;;;;3.23;3.10;;;;;;;21.99;75.68;95251.75;4402864;32;20191;-67
2022/07/25 05:42:18;;;;;;;3.93;3.63;;;;;;;22.05;75.50;95250.28;4340180;32;20259;-67
2022/07/25 05:44:43;;;;;;;5.00;2.93;;;;;;;22.17;75.74;95253.53;4356781;32;20202;-67
2022/07/25 05:47:10;;;;;;;3.23;3.00;;;;;;;22.24;75.36;95252.81;4394167;32;20176;-67
2022/07/25 05:49:36;;;;;;;3.17;2.97;;;;;;;22.30;75.10;95256.75;4394666;32;20184;-67
2022/07/25 05:52:01;;;;;;;2.63;2.53;;;;;;;22.32;75.21;95253.69;4381270;32;20250;-67
2022/07/25 05:54:28;;;;;;;3.50;3.20;;;;;;;22.32;75.46;95257.16;4390777;32;20194;-67
2022/07/25 05:56:53;;;;;;;2.53;2.43;;;;;;;22.33;75.05;95253.31;4393025;32;20180;-68
2022/07/25 05:59:19;;;;;;;2.67;2.57;;;;;;;22.43;74.83;95258.06;4382930;32;20273;-68
2022/07/25 06:01:44;;;;;;;3.77;2.87;;;;;;;22.40;74.84;95250.69;4360089;32;20187;-66
2022/07/25 06:04:11;;;;;;;11.53;3.87;;;;;;;22.58;74.37;95248.94;4380393;32;20553;-68
2022/07/25 06:06:38;;;;;;;2.87;2.67;;;;;;;22.61;74.22;95248.22;4388033;32;20193;-67
2022/07/25 06:09:03;;;;;;;3.97;3.77;;;;;;;22.60;74.47;95252.06;4372443;32;20196;-67
2022/07/25 06:11:30;;;;;;;3.40;3.20;;;;;;;22.61;74.23;95239.31;4366123;32;20210;-67
2022/07/25 06:13:57;;;;;;;3.40;3.23;;;;;;;22.68;74.01;95249.41;4392163;32;20183;-68
2022/07/25 06:16:23;;;;;;;2.93;2.73;;;;;;;22.72;73.97;95251.00;4381962;32;20183;-68
2022/07/25 06:18:49;;;;;;;5.37;3.70;;;;;;;22.67;75.21;95245.94;4388736;32;20328;-68
2022/07/25 06:21:23;;;;;;;2.80;2.57;;;;;;;22.71;74.96;95243.25;4393037;32;20198;-68
2022/07/25 06:23:49;;;;;;;7.63;4.40;;;;;;;22.81;74.36;95243.41;4377956;32;20342;-69
2022/07/25 06:26:17;;;;;;;3.40;3.20;;;;;;;22.91;73.81;95239.22;4400795;32;20191;-67
2022/07/25 06:28:42;;;;;;;2.47;2.37;;;;;;;22.88;73.11;95248.06;4377629;32;20184;-67
2022/07/25 06:31:08;;;;;;;4.23;2.90;;;;;;;22.98;73.15;95250.09;4378372;32;20188;-67
2022/07/25 06:33:35;;;;;;;2.97;2.80;;;;;;;23.08;73.57;95246.69;4400356;32;20242;-67
2022/07/25 06:36:01;;;;;;;3.97;3.67;;;;;;;23.13;72.97;95245.56;4357420;32;20240;-64
2022/07/25 06:38:27;;;;;;;3.70;3.40;;;;;;;23.25;72.52;95242.59;4337293;32;20188;-69
2022/07/25 06:40:53;;;;;;;3.23;3.13;;;;;;;23.39;72.55;95239.19;4376466;32;20271;-68
2022/07/25 06:43:21;;;;;;;2.83;2.73;;;;;;;23.52;71.53;95237.75;4381680;32;22596;-69
2022/07/25 06:45:47;;;;;;;3.60;3.40;;;;;;;23.59;72.02;95241.28;4358236;32;20180;-68
2022/07/25 06:48:13;;;;;;;3.40;3.20;;;;;;;23.70;70.81;95235.91;4398942;32;20185;-68
2022/07/25 06:50:41;;;;;;;2.93;2.83;;;;;;;23.81;70.05;95231.31;4400290;32;20267;-68
2022/07/25 06:53:07;;;;;;;2.50;2.40;;;;;;;23.86;70.74;95230.19;4397105;32;20195;-68
2022/07/25 06:55:33;;;;;;;3.40;3.20;;;;;;;23.89;70.70;95232.16;4382839;32;20195;-66
2022/07/25 06:57:59;;;;;;;2.67;2.57;;;;;;;24.05;69.61;95226.41;4370516;32;20258;-66
2022/07/25 07:00:36;;;;;;;2.63;2.53;;;;;;;24.11;69.60;95230.31;4383748;32;20184;-66
2022/07/25 07:03:02;;;;;;;2.60;2.50;;;;;;;24.21;68.77;95224.13;4395649;32;20246;-68
2022/07/25 07:05:30;;;;;;;2.80;2.63;;;;;;;24.33;68.14;95226.50;4397032;32;20264;-67
2022/07/25 07:07:56;;;;;;;2.37;2.27;;;;;;;24.43;67.38;95228.47;4386396;32;20185;-67
2022/07/25 07:10:24;;;;;;;1.60;1.60;;;;;;;24.42;67.91;95221.50;4381377;32;20219;-67
2022/07/25 07:12:50;;;;;;;2.47;2.37;;;;;;;24.54;67.51;95226.53;4380252;32;20296;-67
2022/07/25 07:15:16;;;;;;;4.83;3.63;;;;;;;24.64;66.73;95222.31;4397651;32;20195;-66
2022/07/25 07:17:43;;;;;;;3.47;3.27;;;;;;;24.74;66.89;95218.03;4383545;32;20255;-64
2022/07/25 07:20:10;;;;;;;3.93;3.83;;;;;;;24.75;66.84;95216.88;4360087;32;20246;-67
2022/07/25 07:22:44;;;;;;;4.10;3.87;;;;;;;24.80;66.81;95216.50;4371618;32;20196;-67
2022/07/25 07:25:11;;;;;;;2.63;2.53;;;;;;;24.90;66.51;95215.75;4366508;32;20203;-69
2022/07/25 07:27:36;;;;;;;3.33;3.13;;;;;;;24.93;66.21;95209.53;4366361;32;20184;-66
2022/07/25 07:30:02;;;;;;;2.57;2.47;;;;;;;25.00;66.08;95212.25;4374467;32;20266;-67
2022/07/25 07:32:31;;;;;;;2.93;2.73;;;;;;;25.13;65.71;95208.00;4373846;32;20215;-66
2022/07/25 07:34:56;;;;;;;3.37;3.17;;;;;;;25.19;65.25;95201.00;4356525;32;20207;-71
2022/07/25 07:37:21;;;;;;;3.70;3.47;;;;;;;25.24;65.46;95203.31;4381271;32;20176;-72
2022/07/25 07:39:51;;;;;;;3.67;3.47;;;;;;;25.32;65.63;95207.59;4380156;32;20196;-68
2022/07/25 07:42:19;;;;;;;2.93;2.83;;;;;;;25.38;64.88;95204.47;4394627;32;20191;-69
2022/07/25 07:44:46;;;;;;;3.37;3.17;;;;;;;25.48;63.63;95201.72;4397424;32;20180;-68
2022/07/25 07:47:13;;;;;;;2.33;2.23;;;;;;;25.53;63.54;95197.84;4393405;32;20230;-70
2022/07/25 07:49:39;;;;;;;3.30;3.20;;;;;;;25.60;63.85;95197.81;4398859;32;20188;-68
2022/07/25 07:52:05;;;;;;;5.37;2.37;;;;;;;25.68;63.56;95192.00;4391157;32;20209;-67
2022/07/25 07:57:17;;;;;;;3.33;3.13;;;;;;;25.78;63.70;95189.63;4401386;32;20230;-68
2022/07/25 07:59:42;;;;;;;3.97;3.10;;;;;;;25.85;62.76;95192.31;4394937;32;20176;-67
2022/07/25 08:02:09;;;;;;;2.93;2.80;;;;;;;25.90;62.46;95200.84;4402087;32;20205;-67
2022/07/25 08:04:34;;;;;;;5.10;2.53;;;;;;;25.95;62.15;95197.72;4389835;32;20206;-67
2022/07/25 08:07:00;;;;;;;2.53;2.33;;;;;;;26.00;62.20;95200.03;4377959;32;20184;-66
2022/07/25 08:09:25;;;;;;;2.33;2.27;;;;;;;26.11;62.14;95202.69;4355544;32;20288;-67
2022/07/25 08:11:51;;;;;;;2.70;2.60;;;;;;;26.21;61.45;95206.53;4404473;32;20262;-67
2022/07/25 08:14:17;;;;;;;3.07;2.97;;;;;;;26.30;61.29;95198.75;4380816;32;20255;-69
2022/07/25 08:16:44;;;;;;;2.60;2.50;;;;;;;26.35;61.18;95195.62;4359414;32;20196;-68
2022/07/25 08:19:11;;;;;;;4.40;4.10;;;;;;;26.47;60.82;95197.84;4393905;32;20225;-70
2022/07/25 08:21:41;;;;;;;2.77;2.57;;;;;;;26.54;60.90;95194.31;4387415;32;20214;-68
2022/07/25 08:24:08;;;;;;;3.47;3.27;;;;;;;26.51;60.58;95187.72;4370179;32;20188;-69
2022/07/25 08:26:35;;;;;;;2.80;2.17;;;;;;;26.64;60.11;95188.78;4372570;32;20200;-67
2022/07/25 08:29:03;;;;;;;3.57;3.27;;;;;;;26.65;59.89;95190.34;4382227;32;20227;-66
2022/07/25 08:31:33;;;;;;;3.07;2.97;;;;;;;26.63;60.27;95186.47;4389105;32;20226;-67
2022/07/25 08:34:03;;;;;;;3.37;3.07;;;;;;;26.62;60.35;95185.69;4399896;32;20241;-66
2022/07/25 08:36:28;;;;;;;4.03;2.87;;;;;;;26.65;60.51;95175.97;4402203;32;20187;-70
2022/07/25 08:38:56;;;;;;;2.83;2.73;;;;;;;26.72;59.69;95170.47;4395630;32;20193;-69
2022/07/25 08:41:21;;;;;;;2.27;2.17;;;;;;;26.78;60.00;95177.03;4353094;32;20180;-68
2022/07/25 08:43:50;;;;;;;3.33;3.13;;;;;;;26.78;59.92;95170.81;4395329;32;20242;-67
2022/07/25 08:46:17;;;;;;;2.87;2.77;;;;;;;26.86;59.52;95173.06;4386023;32;20286;-69
2022/07/25 08:48:47;;;;;;;2.27;2.17;;;;;;;26.78;59.22;95176.28;4391739;32;20168;-70
2022/07/25 08:51:17;;;;;;;4.20;3.40;;;;;;;26.89;58.55;95174.22;4394373;32;20179;-70
2022/07/25 08:53:44;;;;;;;2.70;2.50;;;;;;;26.91;58.80;95166.44;4397911;32;20202;-67
2022/07/25 08:56:10;;;;;;;3.33;3.13;;;;;;;27.05;57.98;95163.59;4385171;32;20222;-67
2022/07/25 08:58:37;;;;;;;2.87;2.77;;;;;;;27.06;57.74;95165.16;4386344;32;20263;-67
2022/07/25 09:01:05;;;;;;;6.30;5.03;;;;;;;27.08;57.09;95162.78;4379839;32;20246;-67
2022/07/25 09:03:35;;;;;;;3.10;3.00;;;;;;;27.09;57.16;95161.63;4386571;32;20218;-67
2022/07/25 09:06:11;;;;;;;3.13;2.93;;;;;;;27.13;56.82;95158.88;4367749;32;20294;-67
2022/07/25 09:08:37;;;;;;;3.07;2.80;;;;;;;27.17;57.08;95163.13;4379995;32;20181;-67
2022/07/25 09:11:07;;;;;;;3.30;3.10;;;;;;;27.28;56.88;95149.38;4378727;32;20198;-67
2022/07/25 09:13:37;;;;;;;3.13;3.03;;;;;;;27.53;54.73;95152.59;4381796;32;20203;-67
2022/07/25 09:16:07;;;;;;;3.23;3.03;;;;;;;27.63;55.15;95154.47;4392844;32;20180;-68
2022/07/25 09:18:35;;;;;;;3.70;3.00;;;;;;;27.78;54.29;95151.56;4382494;32;20227;-69
2022/07/25 09:21:00;;;;;;;3.00;2.80;;;;;;;27.84;53.75;95148.00;4402373;32;20180;-68
2022/07/25 09:23:39;;;;;;;2.33;2.23;;;;;;;27.82;54.09;95150.34;4383862;32;20185;-68
2022/07/25 09:26:12;;;;;;;3.87;3.47;;;;;;;28.04;52.71;95145.41;4255109;32;20185;-66
2022/07/25 09:28:46;;;;;;;12.80;11.70;;;;;;;28.00;53.43;95150.12;4270176;32;20177;-69
2022/07/25 09:34:28;;;;;;;3.73;3.40;;;;;;;28.02;53.19;95148.53;4262523;32;20184;-65
2022/07/25 09:36:57;;;;;;;6.13;5.67;;;;;;;28.23;51.67;95149.47;4237778;32;20279;-71
2022/07/25 09:39:42;;;;;;;5.10;3.40;;;;;;;28.19;51.70;95149.47;4294286;32;20366;-70
2022/07/25 09:42:45;;;;;;;4.27;3.87;;;;;;;28.19;51.80;95145.97;4229535;32;20231;-69
2022/07/25 09:48:05;;;;;;;3.73;3.53;;;;;;;28.29;51.35;95143.09;4365157;28;20249;-59
2022/07/25 09:50:32;;;;;;;10.27;8.97;;;;;;;28.39;50.45;95138.69;4263549;33;20247;-59
2022/07/25 09:53:00;;;;;;;3.00;2.80;;;;;;;28.41;49.09;95139.06;4264715;33;20200;-59
2022/07/25 09:55:27;;;;;;;3.60;3.40;;;;;;;28.65;46.37;95137.91;4263920;33;20191;-59
2022/07/25 09:57:52;;;;;;;1.53;1.53;;;;;;;28.65;48.23;95140.63;4265929;33;20221;-60
2022/07/25 10:00:23;;;;;;;4.70;3.07;;;;;;;28.79;46.95;95150.56;4272453;33;20290;-59
2022/07/25 10:02:54;;;;;;;4.93;4.60;;;;;;;28.76;47.08;95137.72;4276552;33;20333;-60
2022/07/25 10:05:39;;;;;;;5.10;4.70;;;;;;;28.89;46.05;95138.69;4269292;33;20209;-60
2022/07/25 10:08:07;;;;;;;3.13;2.93;;;;;;;28.89;45.88;95137.94;4260082;33;20238;-60
2022/07/25 10:10:40;;;;;;;4.97;4.57;;;;;;;28.89;46.99;95127.03;4271474;33;20310;-59
2022/07/25 10:13:12;;;;;;;3.67;3.47;;;;;;;28.93;45.88;95128.47;4269048;33;20291;-60
2022/07/25 10:15:43;;;;;;;3.17;2.87;;;;;;;28.86;47.68;95125.13;4257259;33;20285;-61
2022/07/25 10:18:09;;;;;;;2.40;2.30;;;;;;;29.16;46.19;95135.88;4275028;33;20200;-59
2022/07/25 10:20:35;;;;;;;2.60;2.50;;;;;;;29.19;46.16;95129.59;4276854;33;20199;-60
2022/07/25 10:23:00;;;;;;;3.33;3.03;;;;;;;29.21;46.11;95124.47;4272002;33;20209;-59
2022/07/25 10:25:26;;;;;;;2.17;2.07;;;;;;;29.18;46.26;95121.81;4273234;33;20210;-60
2022/07/25 10:28:02;;;;;;;2.50;2.40;;;;;;;29.36;45.70;95112.09;4276478;33;20213;-60
2022/07/25 10:30:39;;;;;;;5.60;3.33;;;;;;;29.35;46.15;95121.47;4277792;33;20218;-59
2022/07/25 10:33:13;;;;;;;2.67;2.57;;;;;;;29.42;45.95;95108.91;4277947;33;20242;-60
2022/07/25 10:35:40;;;;;;;1.87;1.77;;;;;;;29.53;45.17;95103.97;4277423;33;20205;-59
2022/07/25 10:38:05;;;;;;;3.13;2.93;;;;;;;29.72;43.93;95100.50;4262370;33;20207;-59
2022/07/25 10:40:38;;;;;;;2.33;2.23;;;;;;;29.72;45.06;95100.50;4276110;33;20215;-59
2022/07/25 10:43:06;;;;;;;2.67;2.57;;;;;;;29.62;44.86;95101.47;4271693;33;20221;-60
2022/07/25 10:45:56;;;;;;;2.93;2.73;;;;;;;29.69;44.25;95095.84;4273465;33;20230;-60
2022/07/25 10:48:24;;;;;;;2.63;2.53;;;;;;;29.79;43.98;95094.84;4280153;33;20187;-60
2022/07/25 10:50:58;;;;;;;2.13;2.03;;;;;;;29.96;43.44;95082.75;4279328;33;20203;-60
2022/07/25 10:53:48;;;;;;;2.43;2.30;;;;;;;30.03;43.41;95085.37;4281161;33;20190;-60
2022/07/25 10:56:16;;;;;;;1.83;1.73;;;;;;;30.03;43.93;95087.34;4263090;33;20221;-60
2022/07/25 10:58:55;;;;;;;6.23;5.27;;;;;;;30.11;43.07;95082.47;4273216;33;20245;-59
2022/07/25 11:01:20;;;;;;;6.13;5.63;;;;;;;30.07;43.98;95080.59;4274940;33;20199;-59
2022/07/25 11:03:46;;;;;;;2.40;2.30;;;;;;;30.08;42.90;95084.87;4281390;33;20187;-60
2022/07/25 11:06:13;;;;;;;3.47;3.17;;;;;;;30.04;43.14;95075.19;4270733;33;20187;-60
2022/07/25 11:08:40;;;;;;;3.23;2.97;;;;;;;30.10;43.70;95078.19;4274710;33;20201;-60
2022/07/25 11:11:06;;;;;;;9.60;5.73;;;;;;;30.07;43.76;95083.31;4280076;33;20206;-60
2022/07/25 11:13:40;;;;;;;3.00;2.80;;;;;;;29.99;43.34;95084.66;4275562;33;20191;-60
2022/07/25 11:16:06;;;;;;;2.17;2.07;;;;;;;30.02;41.82;95078.34;4275584;33;20222;-60
2022/07/25 11:18:36;;;;;;;2.30;2.20;;;;;;;30.00;41.41;95071.75;4273151;33;20235;-61
2022/07/25 11:21:05;;;;;;;2.63;2.53;;;;;;;30.16;39.41;95063.56;4276608;33;20235;-61
2022/07/25 11:23:32;;;;;;;12.70;10.03;;;;;;;30.27;39.46;95086.00;4257942;33;20186;-60
2022/07/25 11:26:09;;;;;;;3.23;3.03;;;;;;;30.41;38.92;95065.72;4273068;33;20187;-59
2022/07/25 11:28:38;;;;;;;2.13;2.00;;;;;;;30.30;39.00;95070.69;4269692;33;20306;-62
2022/07/25 11:31:07;;;;;;;1.80;1.70;;;;;;;30.18;38.91;95071.34;4257850;33;20267;-62
2022/07/25 11:33:33;;;;;;;3.03;2.80;;;;;;;30.08;39.66;95073.16;4270742;33;20242;-61
2022/07/25 11:35:59;;;;;;;1.57;1.50;;;;;;;30.12;38.72;95067.59;4271871;33;20195;-62
2022/07/25 11:38:25;;;;;;;2.83;2.37;;;;;;;30.30;37.29;95051.53;4269127;33;20326;-61
2022/07/25 11:40:50;;;;;;;2.03;1.93;;;;;;;30.24;37.78;95055.97;4270712;33;20195;-61
2022/07/25 11:43:20;;;;;;;2.50;2.40;;;;;;;30.36;37.02;95044.31;4255103;33;20255;-60
2022/07/25 11:46:17;;;;;;;3.87;3.27;;;;;;;30.40;36.86;95050.47;4257176;33;20195;-61
2022/07/25 11:48:43;;;;;;;2.57;2.37;;;;;;;30.39;37.21;95059.91;4267891;33;20226;-61
2022/07/25 11:51:08;;;;;;;3.50;2.00;;;;;;;30.34;36.01;95050.25;4268441;33;20266;-59
2022/07/25 11:53:39;;;;;;;1.47;1.37;;;;;;;30.47;34.90;95055.81;4272454;33;20191;-61